Time;durP1;ratioP1;P1;durP2;ratioP2;P2;SDS_P1;SDS_P2;PMS_P1;PMS_P2;Temp;Humidity;BMP_temperature;BMP_pressure;BME280_temperature;BME280_humidity;BME280_pressure;Samples;Min_cycle;Max_cycle;Signal;HPM_P1;HPM_P2
2021/01/05 00:00:54;;;;;;;44.13;23.17;;;;;;;-0.21;82.17;100944.41;1694738;82;21420;-90
2021/01/05 00:12:45;;;;;;;88.27;31.20;;;;;;;-0.35;81.56;100946.27;1720058;79;21330;-93
2021/01/05 00:15:23;;;;;;;64.10;27.37;;;;;;;-0.38;81.84;100951.22;1702640;82;21726;-94
2021/01/05 00:17:55;;;;;;;75.50;29.17;;;;;;;-0.37;82.08;100959.95;1667535;83;21231;-90
2021/01/05 00:20:32;;;;;;;72.90;26.37;;;;;;;-0.23;81.53;100958.53;1698986;82;21325;-93
2021/01/05 00:23:09;;;;;;;98.03;32.33;;;;;;;-0.20;81.31;100941.30;1675690;83;21264;-93
2021/01/05 00:26:05;;;;;;;;;;;;;;;;;;;;;
2021/01/05 00:29:17;;;;;;;41.70;22.47;;;;;;;-0.38;82.11;100939.44;1694056;83;21229;-94
2021/01/05 00:32:17;;;;;;;38.63;19.40;;;;;;;-0.34;82.08;100942.70;1655108;83;21175;-94
2021/01/05 00:45:44;;;;;;;43.60;22.13;;;;;;;-0.36;82.75;100937.55;1826438;77;23676;-92
2021/01/05 00:48:23;;;;;;;42.73;23.37;;;;;;;-0.47;83.02;100949.22;1791326;78;21173;-93
2021/01/05 00:51:20;;;;;;;40.80;24.13;;;;;;;-0.40;83.27;100954.42;1815970;79;26201;-92
2021/01/05 00:53:51;;;;;;;38.27;17.57;;;;;;;-0.27;82.84;100967.55;1780484;80;21295;-94
2021/01/05 00:56:22;;;;;;;65.37;21.63;;;;;;;-0.33;81.51;100972.72;1763107;80;21361;-92
2021/01/05 00:58:54;;;;;;;39.60;19.70;;;;;;;-0.45;81.88;100957.84;1775628;80;21152;-91
2021/01/05 01:01:23;;;;;;;44.07;19.30;;;;;;;-0.54;82.26;100955.83;1741096;81;21207;-92
2021/01/05 01:03:52;;;;;;;39.23;21.07;;;;;;;-0.53;82.38;100950.94;1702594;80;21323;-94
2021/01/05 01:06:32;;;;;;;;;;;;;;;-0.54;82.67;100945.35;1677068;81;21426;-89
2021/01/05 01:09:02;;;;;;;53.87;23.90;;;;;;;-0.59;82.98;100950.40;1697212;82;20526;-86
2021/01/05 01:11:33;;;;;;;43.80;22.43;;;;;;;-0.54;83.11;100945.35;1697652;82;21203;-87
2021/01/05 01:14:05;;;;;;;73.40;30.13;;;;;;;-0.41;82.67;100948.35;1694938;83;21777;-89
2021/01/05 01:16:34;;;;;;;50.77;27.67;;;;;;;-0.44;82.62;100938.07;1709400;82;21192;-87
2021/01/05 01:19:01;;;;;;;58.73;25.97;;;;;;;-0.44;82.71;100942.00;1707080;82;21649;-90
2021/01/05 01:21:30;;;;;;;63.00;26.50;;;;;;;-0.41;82.69;100927.40;1706739;82;21355;-89
2021/01/05 01:23:58;;;;;;;52.03;24.20;;;;;;;-0.29;82.15;100930.13;1699905;82;21562;-89
2021/01/05 01:26:35;;;;;;;39.53;18.83;;;;;;;-0.44;81.56;100930.69;1678469;84;21342;-87
2021/01/05 01:29:03;;;;;;;44.60;22.43;;;;;;;-0.50;81.69;100930.62;1686543;83;21180;-89
2021/01/05 01:31:30;;;;;;;31.10;19.57;;;;;;;-0.43;81.58;100927.14;1688253;82;21623;-87
2021/01/05 01:33:58;;;;;;;84.73;33.87;;;;;;;-0.35;81.35;100936.62;1705237;82;21319;-88
2021/01/05 01:36:26;;;;;;;90.17;32.00;;;;;;;-0.43;81.52;100910.95;1708970;82;21205;-90
2021/01/05 01:38:55;;;;;;;71.77;29.37;;;;;;;-0.44;81.75;100908.42;1668489;83;21221;-91
2021/01/05 01:41:26;;;;;;;91.30;34.07;;;;;;;-0.38;81.78;100932.89;1705558;83;21812;-91
2021/01/05 01:43:59;;;;;;;82.20;32.03;;;;;;;-0.29;81.63;100915.24;1712069;82;21220;-90
2021/01/05 01:46:34;;;;;;;85.57;32.30;;;;;;;-0.34;81.85;100919.12;1716431;82;21124;-90
2021/01/05 01:49:02;;;;;;;72.27;31.07;;;;;;;-0.36;82.06;100923.14;1712878;82;21373;-91
2021/01/05 01:51:32;;;;;;;72.53;31.33;;;;;;;-0.25;81.80;100927.19;1697394;83;21773;-92
2021/01/05 01:54:24;;;;;;;49.83;23.83;;;;;;;-0.16;81.55;100932.29;1749393;81;21199;-92
2021/01/05 01:57:27;;;;;;;35.40;19.43;;;;;;;-0.18;81.65;100931.55;1724952;81;21607;-92
2021/01/05 02:00:16;;;;;;;36.73;21.30;;;;;;;-0.26;81.66;100929.94;1691520;82;21157;-92
2021/01/05 02:03:13;;;;;;;31.27;17.20;;;;;;;-0.16;81.42;100940.14;1745550;81;21461;-89
2021/01/05 02:05:57;;;;;;;38.57;22.50;;;;;;;-0.18;81.06;100928.94;1689704;83;21122;-93
2021/01/05 02:08:52;;;;;;;31.47;18.57;;;;;;;-0.36;81.52;100932.80;1691195;83;21249;-89
2021/01/05 02:11:42;;;;;;;31.83;18.13;;;;;;;-0.33;81.51;100927.36;1656706;83;21249;-91
2021/01/05 02:14:24;;;;;;;33.60;16.63;;;;;;;-0.29;81.10;100919.17;1693616;84;21125;-90
2021/01/05 02:17:24;;;;;;;30.70;18.80;;;;;;;-0.38;81.32;100925.03;1651539;84;21655;-91
2021/01/05 02:19:57;;;;;;;31.53;17.97;;;;;;;-0.41;81.51;100923.47;1679383;83;21322;-91
2021/01/05 02:22:39;;;;;;;28.70;18.83;;;;;;;-0.28;81.25;100913.00;1693579;83;21131;-92
2021/01/05 02:25:29;;;;;;;31.13;19.20;;;;;;;-0.28;81.18;100914.80;1689547;82;21187;-91
2021/01/05 02:28:00;;;;;;;32.77;18.00;;;;;;;-0.35;81.52;100919.59;1685997;83;21168;-90
2021/01/05 02:30:39;;;;;;;26.27;16.93;;;;;;;-0.35;81.60;100918.28;1691457;83;21179;-90
2021/01/05 02:34:03;;;;;;;20.53;12.83;;;;;;;-0.24;81.21;100917.09;1666483;84;21209;-90
2021/01/05 02:37:01;;;;;;;31.93;16.83;;;;;;;-0.22;80.98;100907.82;1689232;84;21183;-91
2021/01/05 02:40:27;;;;;;;25.17;14.15;;;;;;;-1.57;81.69;100730.54;1689461;83;21208;-91
2021/01/05 02:43:52;;;;;;;31.47;19.20;;;;;;;-0.38;81.97;100895.39;1686563;83;21297;-88
2021/01/05 02:46:54;;;;;;;43.63;18.07;;;;;;;-0.39;82.04;100890.63;1679543;83;21173;-88
2021/01/05 02:49:51;;;;;;;46.43;20.43;;;;;;;-0.44;82.39;100881.76;1686352;83;21187;-83
2021/01/05 02:53:33;;;;;;;50.50;20.67;;;;;;;-0.30;82.25;100883.45;1686623;80;21116;-85
2021/01/05 02:57:01;;;;;;;24.30;16.97;;;;;;;-0.16;82.09;100882.98;1668166;82;21185;-91
2021/01/05 03:00:28;;;;;;;17.43;10.97;;;;;;;-0.21;82.19;100873.66;1667315;84;21308;-89
2021/01/05 03:03:45;;;;;;;16.20;9.97;;;;;;;-0.10;81.47;100870.76;1687410;83;21189;-91
2021/01/05 03:06:42;;;;;;;19.40;11.00;;;;;;;-0.04;80.81;100889.53;1588976;87;21158;-92
2021/01/05 03:10:15;;;;;;;20.77;13.33;;;;;;;-0.16;80.98;100858.09;1601516;88;21209;-95
2021/01/05 03:13:27;;;;;;;48.67;19.13;;;;;;;-0.22;81.23;100854.94;1617861;86;21762;-93
2021/01/05 03:16:28;;;;;;;20.77;14.30;;;;;;;-0.04;80.94;100858.08;1623910;86;21655;-92
2021/01/05 03:19:41;;;;;;;23.03;11.70;;;;;;;-0.10;80.95;100865.52;1597950;88;21721;-89
2021/01/05 03:22:29;;;;;;;14.70;10.00;;;;;;;-0.20;81.05;100837.33;1635665;85;21172;-90
2021/01/05 03:25:17;;;;;;;18.53;11.23;;;;;;;-0.10;81.04;100842.77;1649822;85;21325;-95
2021/01/05 03:28:13;;;;;;;18.80;11.77;;;;;;;-0.04;80.87;100838.88;1631507;87;21169;-91
2021/01/05 03:31:27;;;;;;;21.30;12.20;;;;;;;-0.17;81.37;100836.75;1651635;85;21181;-93
2021/01/05 03:34:29;;;;;;;20.67;12.10;;;;;;;-0.43;81.69;100811.91;1615132;87;21863;-93
2021/01/05 03:43:38;;;;;;;19.47;12.60;;;;;;;-0.23;81.65;100831.46;1758417;78;21188;-92
2021/01/05 03:46:28;;;;;;;19.57;12.07;;;;;;;-0.09;81.38;100841.00;1792412;78;21224;-93
2021/01/05 03:49:51;;;;;;;16.23;10.63;;;;;;;-0.02;81.28;100850.95;1790345;77;21114;-96
2021/01/05 03:53:29;;;;;;;18.00;10.90;;;;;;;-0.08;81.34;100855.77;1798489;78;21234;-94
2021/01/05 04:00:55;;;;;;;19.87;12.03;;;;;;;0.08;81.01;100860.31;1598142;87;21164;-95
2021/01/05 04:10:13;;;;;;;18.57;9.73;;;;;;;-0.12;80.74;100856.45;1678397;81;21156;-95
2021/01/05 04:16:30;;;;;;;16.10;9.47;;;;;;;-0.29;81.74;100841.06;1732242;81;21196;-96
2021/01/05 04:19:43;;;;;;;;;;;;;;;;;;;;;
2021/01/05 04:39:20;;;;;;;;;;;;;;;;;;;;;
2021/01/05 04:42:31;;;;;;;18.33;11.03;;;;;;;-0.08;80.99;100829.56;1814389;77;24847;-95
2021/01/05 04:46:21;;;;;;;17.80;10.87;;;;;;;-0.23;80.95;100830.15;1793652;78;21123;-94
2021/01/05 04:49:32;;;;;;;17.57;11.17;;;;;;;-0.26;81.23;100833.00;1776448;78;21121;-90
2021/01/05 04:52:05;;;;;;;17.52;11.35;;;;;;;-0.12;81.08;100819.77;1760633;77;21143;-91
2021/01/05 04:55:10;;;;;;;20.47;12.40;;;;;;;-1.19;81.30;100660.00;1776496;77;23028;-90
2021/01/05 04:57:57;;;;;;;;;;;;;;;;;;;;;
2021/01/05 05:00:53;;;;;;;19.98;16.73;;;;;;;-0.67;80.91;100732.77;1791809;77;28200;-91
2021/01/05 05:04:45;;;;;;;18.57;13.27;;;;;;;0.07;80.48;100832.89;1763246;80;21199;-92
2021/01/05 05:07:29;;;;;;;17.17;11.63;;;;;;;0.05;80.23;100822.50;1755435;79;22247;-92
2021/01/05 05:10:30;;;;;;;20.90;13.97;;;;;;;-0.99;80.24;100642.09;1731258;81;21184;-93
2021/01/05 05:13:30;;;;;;;22.73;14.77;;;;;;;0.17;80.31;100824.27;1738467;81;21322;-91
2021/01/05 05:16:40;;;;;;;19.57;12.90;;;;;;;0.12;80.59;100818.51;1728431;82;21195;-93
2021/01/05 05:19:40;;;;;;;19.53;12.77;;;;;;;0.07;80.68;100814.54;1724175;82;21273;-92
2021/01/05 05:22:39;;;;;;;15.77;9.57;;;;;;;-0.86;80.36;100646.00;1740599;81;21145;-92
2021/01/05 05:25:25;;;;;;;17.80;11.23;;;;;;;0.13;80.19;100819.34;1733517;81;21132;-92
2021/01/05 05:28:12;;;;;;;20.90;12.37;;;;;;;-0.07;80.96;100828.62;1724205;82;21183;-91
2021/01/05 05:30:45;;;;;;;20.67;14.20;;;;;;;-0.07;80.96;100818.14;1744809;82;21183;-90
2021/01/05 05:33:20;;;;;;;20.63;12.73;;;;;;;-0.04;80.91;100847.59;1711846;81;21187;-92
2021/01/05 05:50:34;;;;;;;;;;;;;;;;;;;;;
2021/01/05 05:53:20;;;;;;;19.05;16.65;;;;;;;-0.14;81.92;100800.69;1791752;79;28231;-93
2021/01/05 05:56:09;;;;;;;18.57;13.40;;;;;;;0.03;81.15;100810.47;1792783;78;21195;-90
2021/01/05 05:58:53;;;;;;;20.68;12.35;;;;;;;0.04;80.75;100826.09;1778168;80;21645;-91
2021/01/05 06:01:30;;;;;;;23.37;13.10;;;;;;;0.06;80.68;100822.88;1811867;78;21144;-94
2021/01/05 06:04:20;;;;;;;23.97;15.57;;;;;;;-0.03;80.87;100815.67;1803931;78;21150;-90
2021/01/05 06:07:05;;;;;;;;;;;;;;;;;;;;;
2021/01/05 06:20:26;;;;;;;21.40;14.13;;;;;;;-0.16;81.67;100803.89;1773338;79;23067;-93
2021/01/05 06:34:01;;;;;;;19.77;13.30;;;;;;;-0.19;81.59;100784.45;1781636;80;23998;-91
2021/01/05 06:36:33;;;;;;;22.50;14.57;;;;;;;-0.32;81.75;100783.63;1731782;79;80669;-77
2021/01/05 06:39:15;;;;;;;23.30;14.97;;;;;;;-0.31;81.83;100770.91;1775799;76;83208;-88
2021/01/05 06:41:49;;;;;;;22.47;14.43;;;;;;;-0.26;81.80;100784.05;1635868;86;21208;-87
2021/01/05 06:44:22;;;;;;;23.20;13.83;;;;;;;-0.04;81.45;100779.45;1693650;84;21651;-90
2021/01/05 06:46:52;;;;;;;22.30;14.60;;;;;;;0.02;81.38;100793.05;1643290;86;21214;-88
2021/01/05 06:49:26;;;;;;;20.80;13.40;;;;;;;0.00;81.30;100804.98;1682608;84;21144;-87
2021/01/05 06:51:51;;;;;;;22.60;14.17;;;;;;;-0.05;81.19;100828.05;1663274;85;21203;-87
2021/01/05 06:54:18;;;;;;;21.23;14.73;;;;;;;-0.04;81.06;100794.32;1663264;84;21239;-87
2021/01/05 06:56:56;;;;;;;22.63;15.67;;;;;;;0.03;80.80;100799.50;1655307;86;21204;-89
2021/01/05 06:59:37;;;;;;;;;;;;;;;;;;;;;
2021/01/05 07:02:21;;;;;;;20.60;13.40;;;;;;;-0.06;81.27;100798.84;1774431;79;24381;-88
2021/01/05 07:04:53;;;;;;;21.77;13.37;;;;;;;-0.03;81.27;100803.88;1751356;80;21209;-87
2021/01/05 07:07:28;;;;;;;28.07;17.43;;;;;;;-0.02;81.30;100790.66;1650570;80;21127;-87
2021/01/05 07:10:51;;;;;;;21.97;15.33;;;;;;;0.01;81.49;100802.70;1803465;77;27929;-88
2021/01/05 07:13:20;;;;;;;20.77;14.23;;;;;;;-0.07;81.48;100816.83;1803298;77;21143;-90
2021/01/05 07:15:47;;;;;;;19.43;13.93;;;;;;;-0.04;81.34;100812.66;1812710;77;21164;-88
2021/01/05 07:18:14;;;;;;;22.93;15.07;;;;;;;0.06;80.94;100803.22;1815837;79;21678;-89
2021/01/05 07:20:45;;;;;;;27.97;16.07;;;;;;;0.04;81.05;100818.22;1805170;77;21168;-89
2021/01/05 07:23:21;;;;;;;23.90;15.43;;;;;;;0.03;81.23;100818.33;1820485;77;21218;-90
2021/01/05 07:29:07;;;;;;;24.40;17.27;;;;;;;0.29;80.72;100796.33;1844760;74;24742;-89
2021/01/05 07:31:40;;;;;;;25.50;18.03;;;;;;;0.28;80.66;100805.61;1832994;77;21160;-94
2021/01/05 07:34:14;;;;;;;28.27;17.30;;;;;;;0.25;80.77;100805.37;1766590;79;21204;-89
2021/01/05 07:36:49;;;;;;;23.43;15.40;;;;;;;0.24;80.77;100796.30;1752942;79;21147;-91
2021/01/05 07:39:23;;;;;;;27.17;16.80;;;;;;;0.30;80.44;100812.44;1751490;79;21255;-89
2021/01/05 07:42:12;;;;;;;23.40;16.53;;;;;;;0.43;79.99;100803.67;1758881;81;21321;-91
2021/01/05 07:44:52;;;;;;;;;;;;;;;;;;;;;
2021/01/05 07:47:40;;;;;;;23.67;14.97;;;;;;;0.30;80.21;100805.02;1802532;79;22900;-87
2021/01/05 07:50:19;;;;;;;25.83;15.63;;;;;;;0.19;80.39;100801.41;1786627;80;21132;-91
2021/01/05 07:52:48;;;;;;;24.30;16.00;;;;;;;0.29;80.03;100816.48;1786930;78;21123;-92
2021/01/05 07:55:23;;;;;;;23.27;15.80;;;;;;;0.31;79.94;100808.02;1749723;79;21202;-91
2021/01/05 07:57:52;;;;;;;26.07;18.80;;;;;;;0.26;80.25;100814.06;1721310;81;21112;-91
2021/01/05 08:00:28;;;;;;;27.43;16.77;;;;;;;0.25;80.42;100831.59;1753488;80;21092;-95
2021/01/05 08:02:56;;;;;;;30.83;18.73;;;;;;;0.31;80.15;100802.78;1718483;81;21270;-90
2021/01/05 08:05:27;;;;;;;28.57;17.87;;;;;;;0.45;79.66;100803.91;1736838;80;21245;-89
2021/01/05 08:08:45;;;;;;;28.37;17.87;;;;;;;0.48;79.72;100803.70;1759690;79;22927;-93
2021/01/05 08:12:38;;;;;;;;;;;;;;;;;;;;;
2021/01/05 08:28:21;;;;;;;25.37;18.10;;;;;;;0.51;80.00;100786.44;1795661;77;23502;-93
2021/01/05 08:31:05;;;;;;;30.63;19.57;;;;;;;0.64;79.51;100799.49;1835229;76;26591;-93
2021/01/05 08:33:36;;;;;;;24.50;17.70;;;;;;;0.54;79.20;100796.69;1811841;78;21647;-94
2021/01/05 08:36:11;;;;;;;24.93;17.57;;;;;;;0.46;79.31;100774.12;1794876;78;21123;-90
2021/01/05 08:38:42;;;;;;;26.13;18.20;;;;;;;0.55;79.09;100771.31;1782101;80;21164;-94
2021/01/05 08:41:14;;;;;;;26.73;18.60;;;;;;;0.56;79.05;100767.23;1791616;78;21181;-91
2021/01/05 08:43:52;;;;;;;;;;;;;;;;;;;;;
2021/01/05 08:48:40;;;;;;;25.07;16.43;;;;;;;0.42;79.57;100754.80;1815361;77;23440;-90
2021/01/05 08:51:12;;;;;;;31.20;20.97;;;;;;;0.36;79.71;100750.84;1777909;80;21816;-93
2021/01/05 08:53:48;;;;;;;24.20;17.33;;;;;;;0.33;79.90;100748.44;1725251;81;21551;-93
2021/01/05 08:56:30;;;;;;;23.63;15.50;;;;;;;0.43;79.87;100756.45;1738703;81;21148;-94
2021/01/05 08:59:19;;;;;;;26.77;17.87;;;;;;;0.54;79.32;100722.41;1737143;78;21104;-94
2021/01/05 09:01:48;;;;;;;23.87;17.97;;;;;;;0.45;79.45;100751.45;1736943;81;21978;-89
2021/01/05 09:04:21;;;;;;;23.97;16.03;;;;;;;0.43;79.36;100740.23;1716764;81;21380;-93
2021/01/05 09:06:55;;;;;;;22.67;15.60;;;;;;;0.47;78.95;100748.72;1714399;81;21242;-91
2021/01/05 09:09:35;;;;;;;22.83;16.40;;;;;;;0.57;78.70;100721.70;1673660;84;21196;-90
2021/01/05 09:12:39;;;;;;;21.03;15.10;;;;;;;0.53;78.78;100737.31;1645591;83;21148;-90
2021/01/05 09:15:47;;;;;;;25.77;17.43;;;;;;;0.50;79.07;100740.16;1885787;75;25980;-93
2021/01/05 09:18:25;;;;;;;20.40;13.53;;;;;;;0.53;79.00;100754.37;1778144;80;21196;-91
2021/01/05 09:20:58;;;;;;;27.10;18.07;;;;;;;0.63;78.53;100735.33;1752906;80;21183;-90
2021/01/05 09:23:29;;;;;;;27.53;17.20;;;;;;;0.57;78.78;100747.94;1739020;81;21326;-90
2021/01/05 09:26:26;;;;;;;23.40;15.87;;;;;;;0.52;78.86;100739.56;1718600;80;21212;-90
2021/01/05 09:28:56;;;;;;;23.33;15.73;;;;;;;0.52;78.90;100753.16;1754733;79;21213;-91
2021/01/05 09:31:32;;;;;;;24.50;16.37;;;;;;;0.64;78.58;100729.97;1750552;80;21183;-89
2021/01/05 09:34:03;;;;;;;21.40;15.23;;;;;;;0.70;78.41;100734.75;1736993;80;21177;-92
2021/01/05 09:36:39;;;;;;;22.00;16.43;;;;;;;0.65;78.51;100729.00;1679059;81;21187;-91
2021/01/05 09:39:26;;;;;;;31.10;19.13;;;;;;;0.57;78.67;100730.89;1668416;84;21226;-91
2021/01/05 09:42:03;;;;;;;29.00;20.37;;;;;;;-0.77;78.45;100515.80;1656927;84;21218;-90
2021/01/05 09:44:35;;;;;;;22.47;16.53;;;;;;;0.72;78.38;100738.58;1673764;84;21308;-89
2021/01/05 09:47:12;;;;;;;25.37;16.53;;;;;;;0.68;78.31;100727.92;1673100;82;21302;-90
2021/01/05 10:57:31;;;;;;;;;;;;;;;;;;;;;
2021/01/05 11:11:26;;;;;;;26.87;17.00;;;;;;;0.84;79.18;100616.92;1754864;80;23175;-93
2021/01/05 11:25:19;;;;;;;38.00;24.07;;;;;;;0.86;79.36;100607.13;1810640;76;23648;-94
2021/01/05 11:28:12;;;;;;;42.93;24.50;;;;;;;0.75;79.62;100608.44;1745217;78;21222;-91
2021/01/05 11:45:20;;;;;;;42.33;26.10;;;;;;;0.75;79.61;100613.69;1776756;77;23099;-95
2021/01/05 11:48:39;;;;;;;;;;;;;;;;;;;;;
2021/01/05 11:51:24;;;;;;;36.60;31.65;;;;;;;0.62;80.09;100588.04;1779417;79;28375;-93
2021/01/05 11:54:20;;;;;;;;;;;;;;;;;;;;;
2021/01/05 12:00:19;;;;;;;41.80;27.50;;;;;;;1.00;78.74;100614.41;1856876;75;24252;-92
2021/01/05 12:06:58;;;;;;;47.77;30.53;;;;;;;1.05;78.48;100599.14;1833117;76;24670;-94
2021/01/05 12:09:49;;;;;;;36.13;22.50;;;;;;;-0.12;78.77;100433.75;1809901;77;23016;-95
2021/01/05 12:12:21;;;;;;;47.37;29.33;;;;;;;0.86;78.82;100594.02;1789788;79;21163;-93
2021/01/05 12:14:53;;;;;;;41.17;26.10;;;;;;;0.93;78.64;100620.14;1787232;78;21191;-93
2021/01/05 12:20:51;;;;;;;43.30;24.90;;;;;;;0.84;78.45;100606.91;1812782;77;23685;-91
2021/01/05 12:26:25;;;;;;;39.43;26.03;;;;;;;0.87;78.63;100625.88;1776336;79;23048;-93
2021/01/05 12:29:43;;;;;;;42.57;26.27;;;;;;;0.88;78.45;100601.29;1703622;82;21184;-93
2021/01/05 12:45:54;;;;;;;49.40;27.60;;;;;;;0.63;79.03;100588.41;1841229;75;25692;-91
2021/01/05 12:48:36;;;;;;;;;;;;;;;;;;;;;
2021/01/05 12:51:31;;;;;;;36.17;21.90;;;;;;;0.93;78.36;100589.96;1785729;77;22613;-91
2021/01/05 12:54:14;;;;;;;34.47;22.33;;;;;;;0.52;77.36;100557.75;1757448;79;21228;-94
2021/01/05 12:57:13;;;;;;;31.73;19.13;;;;;;;0.72;77.34;100604.76;1743958;79;21168;-93
2021/01/05 13:00:10;;;;;;;39.10;24.10;;;;;;;0.70;77.34;100601.42;1740339;80;21283;-93
2021/01/05 13:02:57;;;;;;;37.15;25.08;;;;;;;0.83;77.18;100569.34;1719875;82;21161;-93
2021/01/05 13:05:57;;;;;;;36.90;24.13;;;;;;;0.80;77.39;100580.06;1766965;79;21251;-93
2021/01/05 13:08:38;;;;;;;37.40;20.97;;;;;;;0.72;77.74;100601.66;1739065;82;21191;-92
2021/01/05 13:11:26;;;;;;;33.97;22.83;;;;;;;0.61;78.07;100589.84;1758479;80;21179;-94
2021/01/05 13:14:35;;;;;;;37.63;22.83;;;;;;;0.64;78.12;100592.69;1737581;80;21231;-92
2021/01/05 13:17:16;;;;;;;38.80;25.10;;;;;;;0.63;78.32;100587.92;1719338;82;21154;-93
2021/01/05 13:19:58;;;;;;;40.53;25.63;;;;;;;0.52;78.76;100606.27;1749558;79;21137;-92
2021/01/05 13:23:01;;;;;;;35.93;21.07;;;;;;;0.48;79.01;100602.22;1753735;80;21231;-93
2021/01/05 13:26:03;;;;;;;46.83;27.47;;;;;;;0.63;78.81;100588.41;1756296;77;21180;-94
2021/01/05 13:28:46;;;;;;;43.13;27.73;;;;;;;0.64;78.72;100578.26;1718739;80;21153;-92
2021/01/05 13:31:57;;;;;;;37.50;24.17;;;;;;;0.37;78.87;100540.09;1739448;79;21146;-92
2021/01/05 13:34:43;;;;;;;27.73;18.10;;;;;;;0.60;78.96;100572.89;1689419;83;21275;-90
2021/01/05 13:37:22;;;;;;;26.90;19.70;;;;;;;0.75;78.13;100611.06;1702963;79;21105;-93
2021/01/05 13:40:21;;;;;;;30.77;20.77;;;;;;;0.69;77.71;100595.80;1705991;83;21210;-93
2021/01/05 13:42:59;;;;;;;26.57;17.53;;;;;;;0.56;77.69;100602.46;1700988;81;21214;-91
2021/01/05 13:46:01;;;;;;;31.17;19.40;;;;;;;0.48;77.90;100566.33;1686902;82;21147;-93
2021/01/05 13:48:38;;;;;;;28.20;19.53;;;;;;;0.60;77.64;100561.09;1676296;82;21192;-92
2021/01/05 13:51:45;;;;;;;30.17;20.75;;;;;;;0.55;77.65;100553.11;1661097;84;21148;-92
2021/01/05 13:54:55;;;;;;;27.58;18.02;;;;;;;0.43;77.87;100558.45;1663230;84;21325;-94
2021/01/05 13:58:11;;;;;;;31.33;21.30;;;;;;;0.43;77.87;100558.45;1624319;86;21211;-94
2021/01/05 14:01:02;;;;;;;32.43;22.20;;;;;;;0.51;77.82;100552.98;1660265;79;21141;-95
2021/01/05 14:03:43;;;;;;;34.03;23.63;;;;;;;0.49;78.03;100556.66;1795165;77;21855;-92
2021/01/05 14:06:35;;;;;;;31.20;20.37;;;;;;;0.50;78.12;100572.29;1771975;78;21199;-95
2021/01/05 14:09:09;;;;;;;30.77;22.27;;;;;;;0.56;78.01;100571.81;1768708;76;21208;-94
2021/01/05 14:12:01;;;;;;;33.53;24.87;;;;;;;0.73;77.56;100569.68;1779327;78;21281;-93
2021/01/05 14:15:03;;;;;;;32.38;22.42;;;;;;;0.71;77.45;100593.89;1804615;77;21138;-94
2021/01/05 14:17:57;;;;;;;30.43;20.23;;;;;;;0.45;77.54;100574.42;1813875;77;21452;-91
2021/01/05 14:20:40;;;;;;;32.00;22.97;;;;;;;0.48;77.58;100589.11;1785965;77;21320;-93
2021/01/05 14:23:46;;;;;;;33.47;22.93;;;;;;;0.52;77.39;100590.05;1776774;78;21146;-93
2021/01/05 14:26:40;;;;;;;33.03;20.73;;;;;;;0.44;77.51;100609.48;1820343;77;21211;-92
2021/01/05 14:29:13;;;;;;;34.63;21.00;;;;;;;0.35;77.57;100580.02;1823370;77;21219;-91
2021/01/05 14:32:05;;;;;;;32.87;24.90;;;;;;;0.43;77.17;100565.84;1762910;79;21136;-94
2021/01/05 14:34:59;;;;;;;32.37;23.27;;;;;;;0.47;77.15;100579.09;1799534;77;21120;-94
2021/01/05 14:37:35;;;;;;;36.90;25.97;;;;;;;0.34;77.48;100564.77;1791721;79;21206;-92
2021/01/05 14:40:46;;;;;;;33.60;23.60;;;;;;;0.27;77.90;100558.80;1809462;77;21117;-91
2021/01/05 14:43:27;;;;;;;38.70;26.90;;;;;;;0.40;77.59;100581.83;1786303;77;21147;-93
2021/01/05 14:46:37;;;;;;;44.53;27.90;;;;;;;0.43;77.52;100565.01;1789156;77;21275;-93
2021/01/05 14:49:56;;;;;;;;;;;;;;;;;;;;;
2021/01/05 14:53:04;;;;;;;40.57;26.73;;;;;;;0.36;77.84;100563.34;1788211;78;21179;-91
2021/01/05 15:06:47;;;;;;;44.43;28.50;;;;;;;0.30;78.17;100552.84;1708197;80;24453;-91
2021/01/05 15:10:27;;;;;;;43.40;26.57;;;;;;;0.18;78.65;100539.34;1809445;78;22728;-92
2021/01/05 15:13:39;;;;;;;37.07;24.77;;;;;;;0.18;78.50;100554.59;1796980;78;21120;-96
2021/01/05 15:16:56;;;;;;;;;;;;;;;0.36;78.07;100565.97;1817450;77;21148;-93
2021/01/05 15:19:40;;;;;;;49.07;27.90;;;;;;;0.34;78.07;100570.47;1772728;79;20233;-93
2021/01/05 15:25:43;;;;;;;59.23;30.37;;;;;;;0.37;78.03;100583.36;1771433;79;21630;-93
2021/01/05 15:29:28;;;;;;;;;;;;;;;;;;;;;
2021/01/05 15:32:14;;;;;;;52.00;25.87;;;;;;;0.43;77.59;100581.57;1711991;82;21358;-94
2021/01/05 15:35:46;;;;;;;78.60;36.50;;;;;;;0.38;77.94;100579.80;1783680;79;27865;-90
2021/01/05 15:38:15;;;;;;;76.17;31.43;;;;;;;0.37;77.74;100572.38;1677870;82;21145;-93
2021/01/05 15:41:23;;;;;;;43.47;25.23;;;;;;;0.31;77.93;100579.41;1634010;84;21161;-90
2021/01/05 15:44:04;;;;;;;32.67;21.53;;;;;;;0.23;77.59;100575.69;1649470;85;21369;-93
2021/01/05 15:46:40;;;;;;;30.47;23.37;;;;;;;0.31;77.24;100579.89;1626713;86;21174;-92
2021/01/05 15:49:13;;;;;;;35.53;24.87;;;;;;;0.29;77.00;100582.63;1616270;87;21503;-91
2021/01/05 15:52:17;;;;;;;33.00;21.53;;;;;;;0.19;77.25;100577.25;1639086;86;21197;-92
2021/01/05 15:54:49;;;;;;;30.80;20.70;;;;;;;0.08;77.69;100564.11;1614309;87;21674;-94
2021/01/05 15:57:28;;;;;;;34.33;24.12;;;;;;;0.19;77.37;100568.07;1588888;87;21700;-91
2021/01/05 16:11:13;;;;;;;34.60;19.27;;;;;;;0.01;78.61;100564.20;1632044;86;28313;-88
2021/01/05 16:14:05;;;;;;;29.47;22.00;;;;;;;-0.08;78.99;100571.44;1764532;79;22823;-92
2021/01/05 16:16:39;;;;;;;31.93;21.73;;;;;;;-0.36;78.66;100507.16;1752103;80;21109;-91
2021/01/05 16:19:19;;;;;;;36.37;25.00;;;;;;;0.01;78.58;100559.45;1751118;80;21124;-91
2021/01/05 16:21:59;;;;;;;34.43;21.60;;;;;;;-1.02;78.77;100408.98;1761345;80;21183;-90
2021/01/05 16:35:32;;;;;;;;;;;;;;;;;;;;;
2021/01/05 16:38:14;;;;;;;34.17;21.93;;;;;;;0.05;78.95;100552.53;1816626;76;23010;-88
2021/01/05 16:41:39;;;;;;;;;;;;;;;;;;;;;
2021/01/05 16:44:20;;;;;;;37.13;24.93;;;;;;;-0.12;79.61;100551.17;1756489;81;21390;-92
2021/01/05 16:47:19;;;;;;;;;;;;;;;;;;;;;
2021/01/05 16:50:30;;;;;;;36.10;23.90;;;;;;;0.02;79.36;100550.16;1800619;79;23118;-92
2021/01/05 16:53:06;;;;;;;33.93;23.30;;;;;;;-0.02;79.42;100548.70;1779546;80;21172;-89
2021/01/05 16:56:14;;;;;;;;;;;;;;;;;;;;;
2021/01/05 17:10:15;;;;;;;40.70;25.50;;;;;;;0.43;78.31;100548.79;1698650;83;23019;-92
2021/01/05 17:13:21;;;;;;;43.23;26.37;;;;;;;0.39;78.39;100553.91;1746045;80;22695;-89
2021/01/05 17:15:56;;;;;;;33.87;22.07;;;;;;;0.33;78.36;100553.91;1719326;81;21215;-89
2021/01/05 17:18:45;;;;;;;37.13;24.87;;;;;;;0.33;78.32;100567.50;1692582;83;21717;-86
2021/01/05 17:21:59;;;;;;;;;;;;;;;;;;;;;
2021/01/05 17:24:34;;;;;;;33.77;20.73;;;;;;;0.43;78.05;100571.08;1709737;79;21177;-90
2021/01/05 17:27:16;;;;;;;45.40;24.53;;;;;;;0.27;78.81;100542.59;1760390;80;21270;-89
2021/01/05 17:29:49;;;;;;;47.17;24.93;;;;;;;0.22;79.22;100556.51;1731515;79;21217;-89
2021/01/05 17:32:32;;;;;;;40.07;24.20;;;;;;;0.16;79.40;100559.60;1746560;79;21167;-89
2021/01/05 17:35:17;;;;;;;;;;;;;;;;;;;;;
2021/01/05 17:38:10;;;;;;;41.53;20.37;;;;;;;0.03;80.17;100537.89;1754419;81;21196;-89
2021/01/05 17:40:43;;;;;;;38.47;22.23;;;;;;;0.13;80.01;100536.23;1724496;81;21166;-88
2021/01/05 17:43:17;;;;;;;32.43;22.37;;;;;;;0.17;79.96;100550.31;1750670;80;21194;-89
2021/01/05 17:45:51;;;;;;;31.53;20.47;;;;;;;0.11;79.68;100556.48;1712290;82;21364;-91
2021/01/05 17:48:59;;;;;;;;;;;;;;;;;;;;;
2021/01/05 17:51:55;;;;;;;;;;;;;;;;;;;;;
2021/01/05 17:54:33;;;;;;;31.47;19.87;;;;;;;0.22;79.53;100548.64;1718039;79;21246;-89
2021/01/05 17:57:05;;;;;;;34.13;21.57;;;;;;;0.23;79.49;100542.47;1735788;81;21314;-92
2021/01/05 17:59:39;;;;;;;25.27;14.80;;;;;;;0.22;79.58;100541.27;1727211;81;21144;-90
2021/01/05 18:02:25;;;;;;;27.47;17.03;;;;;;;0.18;79.18;100553.77;1711632;81;21175;-91
2021/01/05 18:05:16;;;;;;;33.27;17.20;;;;;;;0.26;79.13;100547.94;1808228;76;23299;-90
2021/01/05 18:07:50;;;;;;;80.90;33.03;;;;;;;0.15;78.72;100540.42;1633258;85;21202;-90
2021/01/05 18:10:30;;;;;;;30.90;19.40;;;;;;;0.10;79.51;100551.72;1665344;82;21284;-91
2021/01/05 18:13:23;;;;;;;24.73;17.00;;;;;;;0.18;79.60;100530.17;1848225;74;22353;-90
2021/01/05 18:16:20;;;;;;;24.80;13.70;;;;;;;0.26;78.96;100543.52;1847132;74;21092;-91